Time;durP1;ratioP1;P1;durP2;ratioP2;P2;SDS_P1;SDS_P2;PMS_P1;PMS_P2;Temp;Humidity;BMP_temperature;BMP_pressure;BME280_temperature;BME280_humidity;BME280_pressure;Samples;Min_cycle;Max_cycle;Signal;HPM_P1;HPM_P2
2022/06/27 00:01:14;;;;;;;5.10;4.18;;;18.30;99.90;;;;;;4881445;29;20097;-68
2022/06/27 00:03:39;;;;;;;4.30;3.90;;;18.30;99.90;;;;;;4880916;29;20057;-68
2022/06/27 00:06:05;;;;;;;4.97;3.90;;;18.30;99.90;;;;;;4880831;29;20047;-68
2022/06/27 00:08:31;;;;;;;4.57;4.07;;;18.30;99.90;;;;;;4880821;29;20049;-68
2022/06/27 00:10:56;;;;;;;4.72;4.32;;;18.30;99.90;;;;;;4880892;29;20057;-69
2022/06/27 00:13:22;;;;;;;6.00;5.20;;;18.30;99.90;;;;;;4864332;29;20438;-68
2022/06/27 00:15:48;;;;;;;6.25;5.07;;;18.30;99.90;;;;;;4879522;29;20052;-68
2022/06/27 00:18:14;;;;;;;6.65;5.40;;;18.30;99.90;;;;;;4881155;29;20060;-68
2022/06/27 00:20:39;;;;;;;6.80;5.32;;;18.30;99.90;;;;;;4879423;29;20491;-67
2022/06/27 00:23:05;;;;;;;5.78;5.18;;;18.30;99.90;;;;;;4881344;29;20113;-67
2022/06/27 00:25:31;;;;;;;7.93;5.40;;;18.30;99.90;;;;;;4879445;29;20052;-67
2022/06/27 00:27:56;;;;;;;6.30;5.15;;;18.30;99.90;;;;;;4880540;29;20525;-68
2022/06/27 00:30:22;;;;;;;6.50;5.68;;;18.30;99.90;;;;;;4880470;29;20415;-67
2022/06/27 00:32:48;;;;;;;6.40;5.70;;;18.30;99.90;;;;;;4880680;29;20067;-67
2022/06/27 00:35:15;;;;;;;7.07;6.28;;;18.30;99.90;;;;;;4880297;29;20056;-67
2022/06/27 00:37:40;;;;;;;7.03;6.03;;;18.30;99.90;;;;;;4880364;29;20071;-68
2022/06/27 00:40:08;;;;;;;8.98;6.60;;;18.30;99.90;;;;;;4880291;29;20552;-68
2022/06/27 00:42:36;;;;;;;7.95;6.07;;;18.30;99.90;;;;;;4880164;29;20088;-68
2022/06/27 00:45:02;;;;;;;8.30;6.60;;;18.30;99.90;;;;;;4880150;29;20494;-68
2022/06/27 00:47:27;;;;;;;8.18;6.57;;;18.30;99.90;;;;;;4880005;29;20084;-68
2022/06/27 00:49:53;;;;;;;8.02;6.07;;;18.30;99.90;;;;;;4879989;29;20384;-68
2022/06/27 00:52:19;;;;;;;7.80;6.28;;;18.20;99.90;;;;;;4879850;29;20048;-68
2022/06/27 00:54:47;;;;;;;8.60;6.88;;;18.30;99.90;;;;;;4879110;29;20136;-68
2022/06/27 00:57:13;;;;;;;9.98;7.47;;;18.20;99.90;;;;;;4880062;29;20128;-67
2022/06/27 00:59:39;;;;;;;8.55;7.25;;;18.20;99.90;;;;;;4880000;29;20053;-68
2022/06/27 01:02:06;;;;;;;7.97;6.97;;;18.20;99.90;;;;;;4880071;29;20080;-68
2022/06/27 01:04:35;;;;;;;8.45;7.22;;;18.20;99.90;;;;;;4878720;29;20057;-68
2022/06/27 01:07:01;;;;;;;8.05;7.20;;;18.20;99.90;;;;;;4879895;29;20122;-68
2022/06/27 01:09:27;;;;;;;9.63;7.75;;;18.10;99.90;;;;;;4879912;29;20401;-68
2022/06/27 01:11:53;;;;;;;8.25;7.45;;;18.10;99.90;;;;;;4880891;29;20133;-68
2022/06/27 01:14:20;;;;;;;8.60;7.68;;;18.10;99.90;;;;;;4879573;29;20109;-67
2022/06/27 01:16:46;;;;;;;8.52;7.25;;;18.20;99.90;;;;;;4879849;29;20049;-67
2022/06/27 01:19:14;;;;;;;9.15;7.65;;;18.10;99.90;;;;;;4879841;29;20045;-68
2022/06/27 01:21:49;;;;;;;7.88;7.07;;;18.10;99.90;;;;;;4880073;29;20067;-67
2022/06/27 01:24:19;;;;;;;8.73;7.60;;;18.10;99.90;;;;;;4879837;29;20041;-67
2022/06/27 01:26:45;;;;;;;9.07;8.05;;;18.10;99.90;;;;;;4879336;29;20055;-68
2022/06/27 01:29:12;;;;;;;9.23;7.60;;;18.10;99.90;;;;;;4879460;29;20550;-67
2022/06/27 01:31:39;;;;;;;8.25;7.43;;;18.10;99.90;;;;;;4879737;29;20131;-67
2022/06/27 01:34:06;;;;;;;10.90;8.10;;;18.10;99.90;;;;;;4879697;29;20053;-67
2022/06/27 01:36:42;;;;;;;11.32;8.40;;;18.00;99.90;;;;;;4879694;29;20053;-67
2022/06/27 01:39:10;;;;;;;10.45;8.43;;;18.10;99.90;;;;;;4879745;29;20443;-67
2022/06/27 01:41:37;;;;;;;10.07;8.48;;;18.10;99.90;;;;;;4880067;29;20053;-67
2022/06/27 01:44:03;;;;;;;9.20;8.20;;;18.00;99.90;;;;;;4879682;29;20397;-68
2022/06/27 01:46:39;;;;;;;10.82;8.32;;;18.00;99.90;;;;;;4880955;29;20041;-67
2022/06/27 01:49:05;;;;;;;9.85;7.82;;;18.00;99.90;;;;;;4883982;29;20060;-67
2022/06/27 01:51:31;;;;;;;9.98;8.60;;;18.00;99.90;;;;;;4883325;29;20053;-68
2022/06/27 01:53:57;;;;;;;10.13;7.72;;;18.00;99.90;;;;;;4883767;29;20060;-68
2022/06/27 01:56:23;;;;;;;10.05;8.60;;;17.90;99.90;;;;;;4883470;29;20045;-68
2022/06/27 01:58:48;;;;;;;9.20;7.72;;;17.90;99.90;;;;;;4884617;29;20124;-68
2022/06/27 02:01:14;;;;;;;9.63;8.63;;;17.90;99.90;;;;;;4884679;29;20053;-68
2022/06/27 02:03:40;;;;;;;10.45;8.02;;;17.90;99.90;;;;;;4886114;29;20049;-68
2022/06/27 02:06:05;;;;;;;8.80;7.90;;;17.90;99.90;;;;;;4886858;29;20152;-68
2022/06/27 02:08:32;;;;;;;9.77;8.27;;;17.80;99.90;;;;;;4885563;29;20144;-68
2022/06/27 02:10:58;;;;;;;9.90;8.25;;;17.80;99.90;;;;;;4884968;29;20063;-68
2022/06/27 02:13:24;;;;;;;8.32;6.97;;;17.80;99.90;;;;;;4883308;29;20064;-68
2022/06/27 02:16:07;;;;;;;9.43;6.82;;;17.80;99.90;;;;;;4866462;29;20061;-68
2022/06/27 02:18:33;;;;;;;9.10;7.03;;;17.70;99.90;;;;;;4882911;29;20057;-67
2022/06/27 02:21:00;;;;;;;8.48;6.53;;;17.80;99.90;;;;;;4882732;29;20052;-68
2022/06/27 02:23:26;;;;;;;8.52;6.82;;;17.80;99.90;;;;;;4882375;29;20060;-68
2022/06/27 02:25:53;;;;;;;8.52;6.70;;;17.70;99.90;;;;;;4883494;29;20467;-69
2022/06/27 02:28:22;;;;;;;7.00;6.30;;;17.70;99.90;;;;;;4882666;29;20053;-67
2022/06/27 02:30:48;;;;;;;6.93;6.22;;;17.70;99.90;;;;;;4882607;29;20048;-69
2022/06/27 02:33:13;;;;;;;7.22;6.53;;;17.70;99.90;;;;;;4882619;29;20105;-68
2022/06/27 02:35:40;;;;;;;7.93;6.90;;;17.70;99.90;;;;;;4882477;29;20045;-68
2022/06/27 02:38:09;;;;;;;7.97;6.93;;;17.70;99.90;;;;;;4882129;29;20627;-68
2022/06/27 02:40:36;;;;;;;7.38;6.68;;;17.70;99.90;;;;;;4882388;29;20056;-68
2022/06/27 02:43:02;;;;;;;8.35;7.00;;;17.70;99.90;;;;;;4866149;29;20113;-67
2022/06/27 02:45:32;;;;;;;7.60;6.55;;;17.70;99.90;;;;;;4881108;29;20458;-68
2022/06/27 02:47:58;;;;;;;7.40;6.60;;;17.70;99.90;;;;;;4881141;29;20052;-68
2022/06/27 02:50:26;;;;;;;10.40;7.32;;;17.70;99.90;;;;;;4882271;29;20048;-67
2022/06/27 02:52:59;;;;;;;9.40;7.05;;;17.60;99.90;;;;;;4881245;29;20053;-68
2022/06/27 02:55:31;;;;;;;8.23;7.18;;;17.70;99.90;;;;;;4882447;29;20106;-68
2022/06/27 02:58:02;;;;;;;9.37;7.60;;;17.60;99.90;;;;;;4880040;29;20049;-69
2022/06/27 03:00:29;;;;;;;10.93;8.60;;;17.60;99.90;;;;;;4882862;29;20049;-69
2022/06/27 03:02:56;;;;;;;9.48;7.97;;;17.60;99.90;;;;;;4881054;29;20053;-70
2022/06/27 03:05:22;;;;;;;12.45;8.20;;;17.60;99.90;;;;;;4881907;29;20049;-69
2022/06/27 03:07:48;;;;;;;12.65;8.45;;;17.60;99.90;;;;;;4881917;29;20045;-69
2022/06/27 03:10:14;;;;;;;11.32;8.80;;;17.60;99.90;;;;;;4881128;29;20104;-68
2022/06/27 03:12:41;;;;;;;10.85;9.38;;;17.50;99.90;;;;;;4881165;29;20057;-68
2022/06/27 03:15:08;;;;;;;14.60;9.05;;;17.50;99.90;;;;;;4881812;29;20057;-68
2022/06/27 03:17:33;;;;;;;10.10;8.57;;;17.50;99.90;;;;;;4881741;29;20049;-68
2022/06/27 03:19:59;;;;;;;13.43;9.35;;;17.50;99.90;;;;;;4881702;29;20505;-68
2022/06/27 03:22:25;;;;;;;12.35;8.48;;;17.40;99.90;;;;;;4881644;29;20048;-67
2022/06/27 03:24:50;;;;;;;10.13;8.23;;;17.40;99.90;;;;;;4881623;29;20053;-68
2022/06/27 03:27:16;;;;;;;12.15;8.77;;;17.40;99.90;;;;;;4881460;29;20053;-67
2022/06/27 03:29:42;;;;;;;11.57;8.35;;;17.40;99.90;;;;;;4880921;29;20367;-68
2022/06/27 03:32:08;;;;;;;9.40;7.47;;;17.40;99.90;;;;;;4882310;29;20132;-67
2022/06/27 03:34:34;;;;;;;7.65;6.32;;;17.40;99.90;;;;;;4881473;29;20056;-67
2022/06/27 03:37:00;;;;;;;10.10;7.05;;;17.30;99.90;;;;;;4864950;29;20056;-67
2022/06/27 03:39:26;;;;;;;6.78;5.95;;;17.30;99.90;;;;;;4881096;29;20049;-66
2022/06/27 03:41:51;;;;;;;6.20;5.43;;;17.30;99.90;;;;;;4881304;29;20063;-67
2022/06/27 03:44:17;;;;;;;5.85;4.68;;;17.30;99.90;;;;;;4881325;29;20390;-67
2022/06/27 03:46:43;;;;;;;6.65;5.32;;;17.30;99.90;;;;;;4880057;29;20075;-67
2022/06/27 03:51:55;;;;;;;5.30;4.57;;;17.30;99.90;;;;;;4880938;29;20611;-67
2022/06/27 03:54:21;;;;;;;5.28;4.68;;;17.30;99.90;;;;;;4881114;29;20057;-66
2022/06/27 03:56:47;;;;;;;5.00;4.50;;;17.20;99.90;;;;;;4881885;29;20053;-66
2022/06/27 03:59:13;;;;;;;5.63;4.60;;;17.20;99.90;;;;;;4880127;29;20132;-66
2022/06/27 04:01:39;;;;;;;6.85;5.40;;;17.20;99.90;;;;;;4881486;29;20080;-67
2022/06/27 04:04:05;;;;;;;5.88;5.20;;;17.20;99.90;;;;;;4880895;29;20049;-66
2022/06/27 04:06:32;;;;;;;7.30;5.65;;;17.20;99.90;;;;;;4880823;29;20049;-67
2022/06/27 04:08:58;;;;;;;6.03;5.43;;;17.20;99.90;;;;;;4880743;29;20064;-66
2022/06/27 04:11:24;;;;;;;6.38;5.13;;;17.20;99.90;;;;;;4880126;29;20391;-66
2022/06/27 04:13:50;;;;;;;5.97;4.97;;;17.20;99.90;;;;;;4880783;29;20049;-66
2022/06/27 04:16:15;;;;;;;5.40;4.32;;;17.10;99.90;;;;;;4880684;29;20045;-66
2022/06/27 04:18:41;;;;;;;4.78;4.13;;;17.10;99.90;;;;;;4880680;29;20105;-66
2022/06/27 04:21:07;;;;;;;5.30;4.20;;;17.10;99.90;;;;;;4880564;29;20053;-67
2022/06/27 04:23:32;;;;;;;5.72;4.50;;;17.10;99.90;;;;;;4881126;29;20109;-67
2022/06/27 04:25:58;;;;;;;6.00;4.65;;;17.10;99.90;;;;;;4880477;29;20493;-67
2022/06/27 04:28:24;;;;;;;4.80;4.30;;;17.10;99.90;;;;;;4880512;29;20060;-67
2022/06/27 04:30:51;;;;;;;4.60;4.00;;;17.00;99.90;;;;;;4880485;29;20049;-67
2022/06/27 04:33:16;;;;;;;4.55;3.85;;;17.00;99.90;;;;;;4879260;29;20052;-68
2022/06/27 04:35:46;;;;;;;4.45;3.67;;;17.00;99.90;;;;;;4880400;29;20120;-67
2022/06/27 04:38:12;;;;;;;4.78;4.05;;;17.00;99.90;;;;;;4864618;29;20096;-67
2022/06/27 04:40:38;;;;;;;4.90;3.65;;;17.00;99.90;;;;;;4880327;29;20057;-67
2022/06/27 04:43:04;;;;;;;5.20;3.53;;;17.00;99.90;;;;;;4879543;29;20056;-67
2022/06/27 04:45:32;;;;;;;4.22;3.10;;;17.00;99.90;;;;;;4880210;29;20507;-68
2022/06/27 04:47:59;;;;;;;3.95;3.55;;;17.00;99.90;;;;;;4879030;29;20493;-68
2022/06/27 04:50:25;;;;;;;4.43;3.10;;;16.90;99.90;;;;;;4879210;29;20091;-68
2022/06/27 04:52:51;;;;;;;3.80;3.47;;;16.90;99.90;;;;;;4880085;29;20045;-68
2022/06/27 04:55:18;;;;;;;5.13;3.70;;;16.90;99.90;;;;;;4880112;29;20044;-68
2022/06/27 04:57:46;;;;;;;4.43;4.03;;;16.90;99.90;;;;;;4878927;29;20049;-68
2022/06/27 05:00:15;;;;;;;5.72;4.10;;;16.90;99.90;;;;;;4880029;29;20056;-68
2022/06/27 05:02:41;;;;;;;4.95;4.45;;;16.90;99.90;;;;;;4879008;29;20082;-68
2022/06/27 05:05:08;;;;;;;6.47;5.22;;;16.90;99.90;;;;;;4863628;29;20064;-67
2022/06/27 05:07:34;;;;;;;5.47;4.90;;;16.90;99.90;;;;;;4879884;29;20053;-67
2022/06/27 05:09:59;;;;;;;6.50;5.75;;;16.90;99.90;;;;;;4879690;29;20052;-67
2022/06/27 05:12:26;;;;;;;7.95;6.03;;;16.90;99.90;;;;;;4878711;29;20068;-67
2022/06/27 05:14:53;;;;;;;7.30;5.60;;;16.90;99.90;;;;;;4880495;29;20049;-68
2022/06/27 05:17:20;;;;;;;8.55;6.00;;;16.90;99.90;;;;;;4879205;29;20049;-68
2022/06/27 05:19:46;;;;;;;6.70;5.88;;;16.90;99.90;;;;;;4879900;29;20173;-68
2022/06/27 05:22:11;;;;;;;7.55;6.25;;;16.90;99.90;;;;;;4879352;29;20165;-68
2022/06/27 05:24:37;;;;;;;6.60;5.63;;;16.90;99.90;;;;;;4879855;29;20130;-67
2022/06/27 05:27:03;;;;;;;5.88;5.10;;;17.00;99.90;;;;;;4880498;29;20068;-68
2022/06/27 05:29:29;;;;;;;6.53;5.40;;;17.00;99.90;;;;;;4879797;29;20045;-68
2022/06/27 05:31:55;;;;;;;6.50;4.45;;;17.10;99.90;;;;;;4879820;29;20056;-67
2022/06/27 05:34:21;;;;;;;6.22;4.38;;;17.10;99.90;;;;;;4879753;29;20132;-68
2022/06/27 05:36:47;;;;;;;5.22;4.35;;;17.20;99.90;;;;;;4879681;29;20045;-68
2022/06/27 05:39:14;;;;;;;6.53;4.68;;;17.20;99.90;;;;;;4879739;29;20064;-67
2022/06/27 05:41:41;;;;;;;4.38;3.97;;;17.20;99.90;;;;;;4878074;29;20061;-67
2022/06/27 05:44:09;;;;;;;3.90;3.55;;;17.30;99.90;;;;;;4879637;29;20505;-68
2022/06/27 05:46:37;;;;;;;3.63;3.30;;;17.30;99.90;;;;;;4878430;29;20049;-67
2022/06/27 05:49:03;;;;;;;5.15;3.85;;;17.30;99.90;;;;;;4879695;29;20108;-67
2022/06/27 05:51:29;;;;;;;4.30;3.38;;;17.30;99.90;;;;;;4863473;29;20057;-68
2022/06/27 05:53:58;;;;;;;5.30;4.80;;;17.30;99.90;;;;;;4878448;29;20060;-67
2022/06/27 05:56:26;;;;;;;4.85;4.32;;;17.20;99.90;;;;;;4879607;29;20045;-67
2022/06/27 05:58:51;;;;;;;5.80;5.10;;;17.20;99.90;;;;;;4879686;29;20131;-68
2022/06/27 06:01:17;;;;;;;8.02;5.97;;;17.20;99.90;;;;;;4879340;29;20088;-68
2022/06/27 06:03:43;;;;;;;7.38;6.53;;;17.20;99.90;;;;;;4880311;29;20076;-68
2022/06/27 06:06:09;;;;;;;7.25;6.25;;;17.20;99.90;;;;;;4880781;29;20363;-68
2022/06/27 06:08:36;;;;;;;7.55;6.85;;;17.30;99.90;;;;;;4879970;29;20048;-68
2022/06/27 06:11:02;;;;;;;7.90;6.28;;;17.30;99.90;;;;;;4879323;29;20072;-68
2022/06/27 06:13:29;;;;;;;8.13;7.00;;;17.30;99.90;;;;;;4878492;29;20053;-68
2022/06/27 06:15:57;;;;;;;8.27;6.55;;;17.30;99.90;;;;;;4879391;29;20045;-68
2022/06/27 06:18:23;;;;;;;7.30;6.55;;;17.30;99.90;;;;;;4879565;29;20482;-67
2022/06/27 06:20:50;;;;;;;6.93;6.22;;;17.30;99.90;;;;;;4879399;29;20093;-68
2022/06/27 06:23:16;;;;;;;6.78;6.10;;;17.40;99.90;;;;;;4880155;29;20048;-68
2022/06/27 06:25:45;;;;;;;6.20;4.93;;;17.40;99.90;;;;;;4878993;29;20482;-68
2022/06/27 06:28:11;;;;;;;5.10;4.30;;;17.40;99.90;;;;;;4879297;29;20133;-68
2022/06/27 06:30:37;;;;;;;5.82;5.30;;;17.40;99.90;;;;;;4879231;29;20049;-67
2022/06/27 06:33:04;;;;;;;6.47;5.15;;;17.40;99.90;;;;;;4880223;29;20045;-68
2022/06/27 06:35:31;;;;;;;5.93;4.60;;;17.40;99.90;;;;;;4882549;29;20053;-68
2022/06/27 06:37:58;;;;;;;4.93;4.53;;;17.40;99.90;;;;;;4881525;29;20068;-68
2022/06/27 06:40:24;;;;;;;5.80;4.97;;;17.40;99.90;;;;;;4881538;29;20064;-68
2022/06/27 06:42:51;;;;;;;6.50;5.88;;;17.40;99.90;;;;;;4882589;29;20132;-67
2022/06/27 06:45:16;;;;;;;7.22;5.43;;;17.40;99.90;;;;;;4882735;29;20438;-68
2022/06/27 06:47:47;;;;;;;7.93;6.78;;;17.40;99.90;;;;;;4882720;29;20193;-68
2022/06/27 06:50:16;;;;;;;9.32;7.20;;;17.30;99.90;;;;;;4881424;29;20045;-67
2022/06/27 06:52:42;;;;;;;6.85;5.88;;;17.30;99.90;;;;;;4882200;29;20053;-68
2022/06/27 06:55:12;;;;;;;7.88;7.07;;;17.30;99.90;;;;;;4881627;29;20049;-68
2022/06/27 06:57:38;;;;;;;6.57;5.90;;;17.30;99.90;;;;;;4866580;29;20061;-68
2022/06/27 07:00:06;;;;;;;9.65;6.65;;;17.30;99.90;;;;;;4882235;29;20154;-68
2022/06/27 07:02:32;;;;;;;8.35;6.45;;;17.30;99.90;;;;;;4882102;29;20056;-68
2022/06/27 07:04:58;;;;;;;7.13;6.35;;;17.30;99.90;;;;;;4880961;29;20052;-68
2022/06/27 07:07:25;;;;;;;8.48;5.93;;;17.20;99.90;;;;;;4882062;29;20059;-69
2022/06/27 07:09:52;;;;;;;7.15;5.68;;;17.20;99.90;;;;;;4880719;29;20053;-67
2022/06/27 07:12:18;;;;;;;7.97;6.20;;;17.20;99.90;;;;;;4881846;29;20136;-68
2022/06/27 07:14:45;;;;;;;7.93;6.20;;;17.20;99.90;;;;;;4881863;29;20106;-68
2022/06/27 07:17:11;;;;;;;7.78;6.00;;;17.20;99.90;;;;;;4881804;29;20113;-68
2022/06/27 07:19:38;;;;;;;7.78;6.50;;;17.30;99.90;;;;;;4881763;29;20485;-68
2022/06/27 07:22:06;;;;;;;9.45;7.15;;;17.30;99.90;;;;;;4880669;29;20051;-69
2022/06/27 07:24:32;;;;;;;8.30;7.13;;;17.30;99.90;;;;;;4881816;29;20045;-68
2022/06/27 07:26:59;;;;;;;8.20;7.00;;;17.30;99.90;;;;;;4881692;29;20080;-68
2022/06/27 07:29:29;;;;;;;8.43;6.55;;;17.30;99.90;;;;;;4880836;29;20056;-67
2022/06/27 07:31:55;;;;;;;7.30;6.15;;;17.30;99.90;;;;;;4881183;29;20049;-68
2022/06/27 07:34:22;;;;;;;8.77;7.43;;;17.40;99.90;;;;;;4881537;29;20061;-68
2022/06/27 07:36:48;;;;;;;6.93;6.15;;;17.40;99.90;;;;;;4879485;29;20057;-68
2022/06/27 07:39:14;;;;;;;7.75;6.38;;;17.40;99.90;;;;;;4879460;29;20089;-68
2022/06/27 07:41:40;;;;;;;7.43;6.22;;;17.40;99.90;;;;;;4879319;29;20190;-68
2022/06/27 07:44:06;;;;;;;9.68;7.18;;;17.40;99.90;;;;;;4879543;29;20088;-68
2022/06/27 07:46:34;;;;;;;9.77;8.77;;;17.40;99.90;;;;;;4880391;29;20367;-68
2022/06/27 07:49:00;;;;;;;11.68;8.95;;;17.40;99.90;;;;;;4880534;29;20045;-68
2022/06/27 07:51:27;;;;;;;10.75;9.25;;;17.40;99.90;;;;;;4880781;29;20072;-68
2022/06/27 07:53:53;;;;;;;7.05;6.25;;;17.50;99.90;;;;;;4880077;29;20403;-67
2022/06/27 07:56:24;;;;;;;7.07;6.38;;;17.50;99.90;;;;;;4880396;29;20047;-67
2022/06/27 07:58:53;;;;;;;5.90;5.20;;;17.50;99.90;;;;;;4880301;29;20055;-67
2022/06/27 08:01:19;;;;;;;6.93;6.30;;;17.40;99.90;;;;;;4880329;29;20045;-68
2022/06/27 08:03:48;;;;;;;6.60;5.90;;;17.40;99.90;;;;;;4880054;29;20056;-68
2022/06/27 08:06:20;;;;;;;6.55;5.70;;;17.40;99.90;;;;;;4880165;29;20104;-67
2022/06/27 08:08:54;;;;;;;7.35;6.65;;;17.40;99.90;;;;;;4880290;29;20558;-67
2022/06/27 08:11:33;;;;;;;6.82;6.18;;;17.40;99.90;;;;;;4880232;29;20067;-68
2022/06/27 08:14:05;;;;;;;6.88;6.18;;;17.50;99.90;;;;;;4880760;29;20394;-68
2022/06/27 08:16:32;;;;;;;5.95;5.35;;;17.50;99.90;;;;;;4880063;29;20053;-68
2022/06/27 08:18:59;;;;;;;7.10;5.60;;;17.50;99.90;;;;;;4878371;29;20057;-68
2022/06/27 08:21:27;;;;;;;7.05;5.95;;;17.60;99.90;;;;;;4880095;29;20115;-67
2022/06/27 08:23:58;;;;;;;6.20;5.60;;;17.60;99.90;;;;;;4879802;29;20080;-69
2022/06/27 08:26:25;;;;;;;6.75;6.03;;;17.60;99.90;;;;;;4879958;29;20056;-69
2022/06/27 08:28:52;;;;;;;5.35;4.95;;;17.70;99.90;;;;;;4878530;29;20088;-70
2022/06/27 08:31:19;;;;;;;6.60;5.90;;;17.60;99.90;;;;;;4879997;29;20117;-70
2022/06/27 08:33:47;;;;;;;5.60;4.88;;;17.70;99.90;;;;;;4877888;29;20470;-69
2022/06/27 08:36:17;;;;;;;5.47;4.90;;;17.70;99.90;;;;;;4879401;29;20134;-69
2022/06/27 08:38:48;;;;;;;6.03;4.93;;;17.60;99.90;;;;;;4879732;29;20136;-71
2022/06/27 08:41:14;;;;;;;6.43;4.50;;;17.60;99.90;;;;;;4879342;29;20419;-70
2022/06/27 08:43:41;;;;;;;6.13;5.43;;;17.60;99.90;;;;;;4878873;29;20057;-70
2022/06/27 08:46:09;;;;;;;5.82;5.10;;;17.70;99.90;;;;;;4879701;29;20105;-70
2022/06/27 08:48:39;;;;;;;6.55;5.78;;;17.60;99.90;;;;;;4879631;29;20045;-70
2022/06/27 08:51:06;;;;;;;7.72;5.93;;;17.70;99.90;;;;;;4879252;29;20049;-70
2022/06/27 08:53:33;;;;;;;6.00;5.45;;;17.70;99.90;;;;;;4879051;29;20057;-70
2022/06/27 08:56:00;;;;;;;6.78;5.80;;;17.70;99.90;;;;;;4879502;29;20056;-70
2022/06/27 08:58:28;;;;;;;6.95;5.78;;;17.70;99.90;;;;;;4879213;29;20441;-70
2022/06/27 09:00:55;;;;;;;8.00;5.00;;;17.70;99.90;;;;;;4879548;29;20061;-70
2022/06/27 09:03:22;;;;;;;6.18;5.03;;;17.70;99.90;;;;;;4879715;29;20084;-70
2022/06/27 09:06:03;;;;;;;10.25;5.55;;;17.70;99.90;;;;;;4878928;29;20377;-70
2022/06/27 09:08:36;;;;;;;5.95;5.18;;;17.70;99.90;;;;;;4879050;29;20152;-70
2022/06/27 09:11:03;;;;;;;5.60;5.10;;;17.70;99.90;;;;;;4879247;29;20108;-70
2022/06/27 09:13:30;;;;;;;6.28;5.68;;;17.60;99.90;;;;;;4879466;29;20055;-70
2022/06/27 09:16:02;;;;;;;6.35;5.75;;;17.60;99.90;;;;;;4879495;29;20045;-71
2022/06/27 09:18:37;;;;;;;6.93;6.07;;;17.60;99.90;;;;;;4878730;29;20443;-70
2022/06/27 09:21:05;;;;;;;8.70;5.60;;;17.50;99.90;;;;;;4879321;29;20045;-70
2022/06/27 09:24:01;;;;;;;6.97;5.88;;;17.60;99.90;;;;;;4878845;29;20049;-71
2022/06/27 09:26:36;;;;;;;5.85;5.05;;;17.60;99.90;;;;;;4879603;29;20105;-70
2022/06/27 09:29:16;;;;;;;7.40;5.68;;;17.60;99.90;;;;;;4878144;29;20502;-70
2022/06/27 09:31:45;;;;;;;6.40;5.03;;;17.50;99.90;;;;;;4880213;29;20143;-70
2022/06/27 09:34:23;;;;;;;6.03;5.25;;;17.60;99.90;;;;;;4878744;29;20154;-70
2022/06/27 09:36:51;;;;;;;6.15;5.03;;;17.60;99.90;;;;;;4879347;29;20185;-70
2022/06/27 09:39:29;;;;;;;6.70;5.85;;;17.60;99.90;;;;;;4879193;29;20538;-69
2022/06/27 09:41:59;;;;;;;6.95;5.43;;;17.60;99.90;;;;;;4879170;29;20049;-69
2022/06/27 09:44:27;;;;;;;6.53;5.82;;;17.60;99.90;;;;;;4879282;29;20060;-70
2022/06/27 09:47:16;;;;;;;6.07;5.50;;;17.60;99.90;;;;;;4878278;29;20049;-70
2022/06/27 09:49:44;;;;;;;8.02;5.70;;;17.60;99.90;;;;;;4879051;29;20109;-70
2022/06/27 09:52:21;;;;;;;4.97;4.55;;;17.60;99.90;;;;;;4878769;29;20049;-70
2022/06/27 09:54:49;;;;;;;7.13;5.93;;;17.60;99.90;;;;;;4878758;29;20057;-70
2022/06/27 09:57:16;;;;;;;5.90;5.30;;;17.60;99.90;;;;;;4878803;29;20486;-69
2022/06/27 09:59:44;;;;;;;8.52;6.28;;;17.60;99.90;;;;;;4878937;29;20057;-69
2022/06/27 10:02:16;;;;;;;7.75;6.07;;;17.60;99.90;;;;;;4862178;29;20069;-69
2022/06/27 10:04:43;;;;;;;6.57;5.80;;;17.70;99.90;;;;;;4879034;29;20084;-70
2022/06/27 10:07:11;;;;;;;8.15;6.88;;;17.70;99.90;;;;;;4879972;29;20045;-68
2022/06/27 10:09:37;;;;;;;5.93;5.13;;;17.70;99.90;;;;;;4882862;29;20447;-70
2022/06/27 10:12:36;;;;;;;7.50;6.38;;;17.80;99.90;;;;;;4884840;29;20110;-69
2022/06/27 10:15:10;;;;;;;6.90;4.78;;;17.80;99.90;;;;;;4882562;29;20045;-70
2022/06/27 10:17:41;;;;;;;6.13;5.53;;;17.80;99.90;;;;;;4882227;29;20489;-69
2022/06/27 10:20:26;;;;;;;7.20;5.75;;;17.90;99.90;;;;;;4881038;29;20454;-70
2022/06/27 10:23:04;;;;;;;6.90;5.47;;;17.90;99.90;;;;;;4882248;29;20498;-69
2022/06/27 10:25:30;;;;;;;5.03;4.55;;;17.90;99.90;;;;;;4881700;29;20049;-69
2022/06/27 10:28:15;;;;;;;4.75;4.10;;;18.00;99.90;;;;;;4881958;29;20135;-69
2022/06/27 10:30:53;;;;;;;6.10;4.68;;;18.00;99.90;;;;;;4882814;29;20053;-68
2022/06/27 10:33:30;;;;;;;6.40;5.78;;;18.00;99.90;;;;;;4882641;29;20057;-69
2022/06/27 10:35:59;;;;;;;5.80;5.20;;;18.10;99.90;;;;;;4882316;29;20048;-69
2022/06/27 10:38:25;;;;;;;5.30;4.80;;;18.10;99.90;;;;;;4881594;29;20457;-69
2022/06/27 10:40:52;;;;;;;5.90;5.20;;;18.20;99.90;;;;;;4881899;29;20095;-69
2022/06/27 10:43:39;;;;;;;7.20;6.28;;;18.20;99.90;;;;;;4881581;29;20470;-68
2022/06/27 10:46:10;;;;;;;5.43;4.88;;;18.20;99.90;;;;;;4880419;29;20078;-69
2022/06/27 10:48:38;;;;;;;9.98;6.45;;;18.20;99.90;;;;;;4882015;29;20110;-69
2022/06/27 10:51:29;;;;;;;7.30;6.60;;;18.20;99.90;;;;;;4881855;29;20059;-68
2022/06/27 10:54:04;;;;;;;7.63;6.80;;;18.30;99.90;;;;;;4880301;29;20049;-68
2022/06/27 10:56:36;;;;;;;8.27;6.63;;;18.30;99.90;;;;;;4881332;29;20083;-68
2022/06/27 10:59:05;;;;;;;6.90;6.22;;;18.30;99.90;;;;;;4881970;29;20057;-68
2022/06/27 11:01:35;;;;;;;8.90;6.50;;;18.30;99.90;;;;;;4881661;29;20041;-68
2022/06/27 11:04:01;;;;;;;7.57;6.85;;;18.30;99.90;;;;;;4881981;29;20347;-68
2022/06/27 11:06:27;;;;;;;6.25;5.60;;;18.30;99.90;;;;;;4880856;29;20048;-69
2022/06/27 11:08:54;;;;;;;5.85;5.35;;;18.30;99.90;;;;;;4881183;29;20521;-69
2022/06/27 11:11:22;;;;;;;6.78;6.10;;;18.30;99.90;;;;;;4880811;29;20486;-69
2022/06/27 11:13:56;;;;;;;6.53;5.88;;;18.20;99.90;;;;;;4881322;29;20181;-69
2022/06/27 11:16:30;;;;;;;7.38;6.68;;;18.20;99.90;;;;;;4881310;29;20041;-69
2022/06/27 11:21:52;;;;;;;7.72;6.00;;;18.10;99.90;;;;;;4860966;29;20498;-69
2022/06/27 11:24:20;;;;;;;4.88;4.38;;;18.10;99.90;;;;;;4880427;29;20053;-69
2022/06/27 11:26:50;;;;;;;4.20;3.70;;;18.10;99.90;;;;;;4881019;29;20045;-69
2022/06/27 11:32:11;;;;;;;4.00;2.90;;;18.10;99.90;;;;;;4881552;29;20112;-69
2022/06/27 11:34:41;;;;;;;2.15;1.67;;;18.10;99.90;;;;;;4881341;29;20100;-69
2022/06/27 11:37:13;;;;;;;4.10;2.72;;;18.10;99.90;;;;;;4881500;29;20517;-69
2022/06/27 11:39:39;;;;;;;3.50;2.88;;;18.10;99.90;;;;;;4880322;29;20080;-69
2022/06/27 11:42:10;;;;;;;3.58;3.03;;;18.20;99.90;;;;;;4880282;29;20053;-69
2022/06/27 11:44:36;;;;;;;2.67;2.38;;;18.20;99.90;;;;;;4880366;29;20049;-69
2022/06/27 11:47:08;;;;;;;3.28;2.92;;;18.20;99.90;;;;;;4881081;29;20084;-69
2022/06/27 11:49:38;;;;;;;3.03;2.42;;;18.20;99.90;;;;;;4880539;29;20152;-69
2022/06/27 11:52:09;;;;;;;3.85;2.88;;;18.20;99.90;;;;;;4880597;29;20059;-69
2022/06/27 11:54:46;;;;;;;4.43;2.50;;;18.30;99.90;;;;;;4881254;29;20041;-69
2022/06/27 11:57:33;;;;;;;3.10;2.60;;;18.30;99.90;;;;;;4880817;29;20048;-69
2022/06/27 12:00:01;;;;;;;4.45;4.00;;;18.40;99.90;;;;;;4880444;29;20052;-69
2022/06/27 12:02:36;;;;;;;3.78;3.42;;;18.40;99.90;;;;;;4880822;29;20056;-70
2022/06/27 12:05:05;;;;;;;4.75;4.28;;;18.50;99.90;;;;;;4880650;29;20052;-69
2022/06/27 12:07:31;;;;;;;4.60;4.13;;;18.60;99.90;;;;;;4864164;29;20045;-68
2022/06/27 12:09:57;;;;;;;4.85;3.40;;;18.60;99.90;;;;;;4880433;29;20497;-68
2022/06/27 12:12:30;;;;;;;4.65;3.53;;;18.70;99.90;;;;;;4880266;29;20053;-68
2022/06/27 12:14:56;;;;;;;4.68;3.70;;;18.70;99.90;;;;;;4880221;29;20059;-69
2022/06/27 12:17:23;;;;;;;5.70;4.05;;;18.70;99.90;;;;;;4881055;29;20041;-68
2022/06/27 12:20:01;;;;;;;5.18;3.53;;;18.60;99.90;;;;;;4880043;29;20045;-68
2022/06/27 12:22:27;;;;;;;4.13;3.65;;;18.60;99.90;;;;;;4879487;29;20491;-68
2022/06/27 12:24:53;;;;;;;4.32;3.58;;;18.60;99.90;;;;;;4878917;29;20162;-69
2022/06/27 12:27:19;;;;;;;4.35;3.75;;;18.50;99.90;;;;;;4879646;29;20055;-68
2022/06/27 12:29:45;;;;;;;3.97;3.10;;;18.60;99.90;;;;;;4879360;29;20045;-68
2022/06/27 12:32:10;;;;;;;3.33;3.03;;;18.50;99.90;;;;;;4879922;29;20052;-68
2022/06/27 12:34:36;;;;;;;3.50;3.20;;;18.50;99.90;;;;;;4878886;29;20053;-68
2022/06/27 12:37:02;;;;;;;2.90;2.60;;;18.50;99.90;;;;;;4880099;29;20084;-68
2022/06/27 12:39:29;;;;;;;4.75;2.95;;;18.40;99.90;;;;;;4880699;29;20053;-68
2022/06/27 12:41:54;;;;;;;3.33;2.90;;;18.40;99.90;;;;;;4878779;29;20056;-67
2022/06/27 12:44:20;;;;;;;5.63;4.00;;;18.40;99.90;;;;;;4879896;29;20513;-66
2022/06/27 12:46:49;;;;;;;4.75;3.97;;;18.40;99.90;;;;;;4879959;29;20116;-67
2022/06/27 12:49:15;;;;;;;6.30;4.65;;;18.40;99.90;;;;;;4880020;29;20095;-67
2022/06/27 12:51:41;;;;;;;6.07;4.60;;;18.40;99.90;;;;;;4879373;29;20048;-66
2022/06/27 12:54:07;;;;;;;4.25;3.75;;;18.40;99.90;;;;;;4879481;29;20193;-67
2022/06/27 12:56:33;;;;;;;5.63;4.57;;;18.40;99.90;;;;;;4863135;29;20265;-67
2022/06/27 12:58:58;;;;;;;5.95;5.32;;;18.40;99.90;;;;;;4879277;29;20430;-67